• Join FlightAware (Why Join?)
  • Login
  • US Flag 
02:35PM EDT


 

Airport Tracker/Info


-or-


 

Live Flight TrackerFlight Track Log ✈ N8147X ✈ 28-Jul-2013 ✈ KARB - KDXR

Flight Track Log - Related Links

Times and Time Zones

All times are in EDT time to prevent confusion due to time zone crossing. See the N8147X flight status page for this flight to view local times or setup timezone preferences in your user account.

Time Position Orientation Groundspeed Altitude Reporting Facility
EDT Latitude Longitude Course Direction KTS MPH feet Rate Location/Type
11:22AM 42.2142 -83.7597 180° South 54 62 1,400  Level Cleveland Center
11:23AM 42.2053 -83.7789 238° Southwest 66 76 2,000 720 Climbing Cleveland Center
11:24AM 42.1825 -83.7694 163° South 84 97 2,800 720 Climbing Cleveland Center
11:25AM 42.1600 -83.7569 158° South 87 100 3,500 540 Climbing Cleveland Center
11:26AM 42.1417 -83.7450 154° Southeast 84 97 4,000 300 Climbing Cleveland Center
11:27AM 42.1083 -83.7347 167° South 110 127 4,200  Climbing Cleveland Center
11:28AM 41.9993 -83.7000 180° South  Level FlightAware Approximate
11:28AM 42.0794 -83.7306 174° South 113 130 4,100  Level Cleveland Center
11:30AM 42.0329 -83.7110 166° South  Level FlightAware Approximate
11:37AM 41.7792 -83.6766 175° South  Level FlightAware Approximate
11:38AM 41.7427 -83.6720 175° South  Level FlightAware Approximate
11:39AM 41.7063 -83.6674 175° South  Level FlightAware Approximate
11:40AM 41.6699 -83.6626 174° South  Level FlightAware Approximate
11:41AM 41.6335 -83.6578 174° South  Level FlightAware Approximate
11:42AM 41.5971 -83.6529 174° South  Level FlightAware Approximate
11:43AM 41.5607 -83.6481 174° South  Level FlightAware Approximate
11:44AM 41.5243 -83.6432 174° South  Level FlightAware Approximate
11:44AM 41.6350 -83.6644 93° East 118 136 8,000  Level Cleveland Center
11:45AM 41.4879 -83.6384 174° South  Level FlightAware Approximate
11:45AM 41.6103 -83.6522 160° South 100 115 8,600  Level Cleveland Center
11:46AM 41.4515 -83.6335 174° South  Level FlightAware Approximate
11:46AM 41.6094 -83.6103 92° East 122 140 9,000  Level Cleveland Center
11:47AM 41.4481 -83.5865 93° East  Level FlightAware Approximate
11:47AM 41.6019 -83.5683 103° East 122 140 9,400  Level Cleveland Center
11:48AM 41.4461 -83.5378 93° East  Level FlightAware Approximate
11:48AM 41.5928 -83.5236 105° East 122 140 9,800  Level Cleveland Center
11:49AM 41.4441 -83.4890 93° East  Level FlightAware Approximate
11:49AM 41.5858 -83.4761 101° East 122 140 10,000  Level Cleveland Center
11:50AM 41.4421 -83.4403 93° East  Level FlightAware Approximate
11:50AM 41.5767 -83.4228 103° East 128 147 10,000  Level Cleveland Center
11:51AM 41.5633 -83.3667 108° East 139 160 10,000 -60 Level Cleveland Center
11:52AM 41.5542 -83.3108 102° East 145 167 9,900 -60 Descending Cleveland Center
11:53AM 41.5453 -83.2578 103° East 150 173 9,900  Level Cleveland Center
11:54AM 41.5358 -83.2047 103° East 145 167 9,900  Level Cleveland Center
11:55AM 41.5267 -83.1489 102° East 150 173 9,900  Level Cleveland Center
11:56AM 41.5175 -83.1014 104° East 150 173 9,900  Level Cleveland Center
11:57AM 41.5061 -83.0453 105° East 150 173 9,900 -60 Level Cleveland Center
11:58AM 41.4969 -82.9894 102° East 150 173 9,800 -60 Descending Cleveland Center
11:59AM 41.4875 -82.9367 103° East 150 173 9,800  Level Cleveland Center
12:00PM 41.4783 -82.8836 103° East 150 173 9,800 180 Level Cleveland Center
12:01PM 41.4667 -82.8333 107° East 150 173 10,200 360 Climbing Cleveland Center
12:02PM 41.4592 -82.7942 104° East 125 144 10,600 300 Climbing Cleveland Center
12:03PM 41.4514 -82.7606 107° East 119 137 10,800 120 Climbing Cleveland Center
12:04PM 41.4422 -82.6967 101° East 150 173 10,900  Climbing Cleveland Center
12:05PM 41.4347 -82.6439 101° East 166 191 10,900 -60 Level Cleveland Center
12:06PM 41.4381 -82.5831 86° East 161 185 10,800 -60 Descending Cleveland Center
12:07PM 41.4411 -82.5250 86° East 160 184 10,800  Level Cleveland Center
12:08PM 41.4461 -82.4669 83° East 154 177 10,800  Level Cleveland Center
12:09PM 41.4472 -82.4114 88° East 152 175 10,900  Climbing Cleveland Center
12:10PM 41.4522 -82.3506 84° East 156 180 10,800 -60 Descending Cleveland Center
12:11PM 41.4553 -82.2953 86° East 156 180 10,800  Level Cleveland Center
12:12PM 41.4603 -82.2372 83° East 152 175 10,800  Level Cleveland Center
12:14PM 41.4611 -82.1819 89° East 150 173 10,800  Level Cleveland Center
12:15PM 41.4658 -82.1239 84° East 152 175 10,800  Level Cleveland Center
12:16PM 41.4689 -82.0683 86° East 153 176 10,800  Level Cleveland Center
12:17PM 41.4717 -82.0131 86° East 151 174 10,800  Level Cleveland Center
12:18PM 41.4744 -81.9550 86° East 152 175 10,800  Level Cleveland Center
12:19PM 41.4792 -81.8997 83° East 152 175 10,800  Level Cleveland Center
12:20PM 41.4797 -81.8414 89° East 153 176 10,800  Level Cleveland Center
12:21PM 41.4847 -81.7778 84° East 152 175 10,800  Level Cleveland Center
12:21PM 41.4831 -81.7417 94° East 152 175 10,800  Level Cleveland Center
12:22PM 41.4897 -81.6892 80° East 152 175 10,800  Level Cleveland Center
12:23PM 41.4925 -81.6311 86° East 147 169 10,800  Level Cleveland Center
12:24PM 41.4950 -81.5811 86° East 147 169 10,800  Level Cleveland Center
12:25PM 41.4975 -81.5286 86° East 162 186 10,800  Level Cleveland Center
12:26PM 41.5000 -81.4758 86° East 157 181 10,800 -60 Level Cleveland Center
12:27PM 41.5044 -81.4178 84° East 157 181 10,700 -60 Descending Cleveland Center
12:28PM 41.5069 -81.3650 86° East 152 175 10,700  Level Cleveland Center
12:29PM 41.5094 -81.3069 87° East 152 175 10,800  Climbing Cleveland Center
12:30PM 41.5119 -81.2542 86° East 147 169 10,800  Level Cleveland Center
12:31PM 41.5144 -81.1931 87° East 142 163 10,800  Level Cleveland Center
12:32PM 41.5167 -81.1378 87° East 142 163 10,900  Climbing Cleveland Center
12:33PM 41.5233 -81.0797 81° East 142 163 10,900 -60 Level Cleveland Center
12:34PM 41.5192 -81.0269 96° East 142 163 10,800 -60 Descending Cleveland Center
12:35PM 41.5175 -80.9686 92° East 142 163 10,800  Level Cleveland Center
12:36PM 41.5175 -80.9131 90° East 142 163 10,800  Level Cleveland Center
12:37PM 41.5197 -80.8578 87° East 142 163 10,900  Climbing Cleveland Center
12:38PM 41.5200 -80.8022 90° East 142 163 10,900  Level Cleveland Center
12:39PM 41.5222 -80.7439 87° East 142 163 10,900 -60 Level Cleveland Center
12:40PM 41.5222 -80.6858 90° East 142 163 10,800 -60 Descending Cleveland Center
12:41PM 41.5222 -80.6331 90° East 142 163 10,800 -60 Level Cleveland Center
12:42PM 41.5222 -80.5831 90° East 142 163 10,700  Descending Cleveland Center
12:43PM 41.5242 -80.5278 87° East 142 163 10,800 60 Climbing Cleveland Center
12:44PM 41.5222 -80.4750 93° East 137 158 10,900  Climbing Cleveland Center
12:45PM 41.5242 -80.4194 87° East 143 165 10,900  Level Cleveland Center
12:46PM 41.5242 -80.3642 90° East 143 165 10,900 -60 Level Cleveland Center
12:47PM 41.5239 -80.3086 90° East 143 165 10,800  Descending Cleveland Center
12:48PM 41.5258 -80.2558 87° East 143 165 10,900  Climbing Cleveland Center
12:49PM 41.5258 -80.1975 90° East 143 165 10,900  Level Cleveland Center
12:50PM 41.5256 -80.1450 90° East 143 165 10,900  Level Cleveland Center
12:51PM 41.5253 -80.0922 90° East 143 165 10,900  Level Cleveland Center
12:52PM 41.5272 -80.0367 87° East 143 165 10,900 -60 Level Cleveland Center
12:53PM 41.5269 -79.9814 90° East 143 165 10,800  Descending Cleveland Center
12:54PM 41.5267 -79.9258 90° East 143 165 10,900  Climbing Cleveland Center
12:55PM 41.5242 -79.8731 94° East 143 165 10,800 -60 Descending Cleveland Center
12:56PM 41.5258 -79.8206 88° East 143 165 10,800  Level Cleveland Center
12:57PM 41.5256 -79.7678 90° East 143 165 10,900 60 Climbing Cleveland Center
12:58PM 41.5253 -79.7150 90° East 143 165 11,000 -60 Climbing Cleveland Center
12:59PM 41.5247 -79.6594 91° East 143 165 10,800 -120 Descending Cleveland Center
01:00PM 41.5244 -79.6042 90° East 143 165 10,800  Level Cleveland Center
01:01PM 41.5258 -79.5514 88° East 143 165 10,800  Level Cleveland Center
01:02PM 41.5256 -79.4986 90° East 143 165 10,800  Level Cleveland Center
01:03PM 41.5250 -79.4433 91° East 143 165 10,800  Level Cleveland Center
01:04PM 41.5244 -79.3906 91° East 143 165 10,800  Level Cleveland Center
01:05PM 41.5258 -79.3350 88° East 143 165 10,900  Climbing Cleveland Center
01:06PM 41.5253 -79.2825 91° East 143 165 10,800 -60 Descending Cleveland Center
01:07PM 41.5247 -79.2269 91° East 143 165 10,800  Level Cleveland Center
01:08PM 41.5239 -79.1742 91° East 143 165 10,900  Climbing Cleveland Center
01:09PM 41.5233 -79.1189 91° East 143 165 10,900  Level Cleveland Center
01:10PM 41.5247 -79.0633 88° East 143 165 10,900  Level Cleveland Center
01:11PM 41.5239 -79.0078 91° East 143 165 11,000 -60 Climbing Cleveland Center
01:12PM 41.5231 -78.9522 91° East 143 165 10,800 -60 Descending Cleveland Center
01:13PM 41.5244 -78.8969 88° East 143 165 10,900  Climbing Cleveland Center
01:14PM 41.5217 -78.8414 94° East 143 165 10,900 -60 Level Cleveland Center
01:15PM 41.5228 -78.7886 88° East 143 165 10,800 -120 Descending Cleveland Center
01:16PM 41.5219 -78.7333 91° East 143 165 10,700  Descending Cleveland Center
01:17PM 41.5211 -78.6806 91° East 143 165 10,800  Climbing Cleveland Center
01:18PM 41.5200 -78.6225 91° East 143 165 10,800  Level Cleveland Center
01:19PM 41.5192 -78.5697 91° East 143 165 10,900  Climbing Cleveland Center
01:20PM 41.5183 -78.5197 91° East 143 165 10,900  Level Cleveland Center
01:21PM 41.5194 -78.4672 88° East 143 165 10,900  Level Cleveland Center
01:22PM 41.5183 -78.4117 92° East 143 165 11,000  Climbing Cleveland Center
01:23PM 41.5172 -78.3589 92° East 143 165 11,000  Level Cleveland Center
01:24PM 41.5183 -78.3064 88° East 143 165 11,000  Level Cleveland Center
01:25PM 41.5194 -78.2439 89° East 147 169 11,100  Climbing New York Center
01:26PM 41.5247 -78.1947 82° East 140 161 11,000 -60 Descending New York Center
01:27PM 41.5219 -78.1389 94° East 140 161 11,000  Level New York Center
01:28PM 41.5164 -78.0939 99° East 140 161 11,000 -60 Level New York Center
01:29PM 41.5133 -78.0411 94° East 140 161 10,900 -60 Descending New York Center
01:30PM 41.5125 -77.9883 91° East 140 161 10,900  Level New York Center
01:31PM 41.5133 -77.9383 89° East 140 161 11,000  Climbing New York Center
01:32PM 41.5125 -77.8856 91° East 140 161 11,000  Level New York Center
01:33PM 41.5114 -77.8328 92° East 140 161 11,000 -60 Level New York Center
01:34PM 41.5125 -77.7803 88° East 140 161 10,900 -60 Descending New York Center
01:35PM 41.5117 -77.7219 91° East 140 161 10,900  Level New York Center
01:36PM 41.5103 -77.6719 92° East 140 161 10,900  Level New York Center
01:37PM 41.5111 -77.6222 89° East 140 161 11,000 60 Climbing New York Center
01:38PM 41.5122 -77.5697 88° East 140 161 11,100  Climbing New York Center
01:39PM 41.5108 -77.5197 92° East 140 161 11,000 -60 Descending New York Center
01:40PM 41.5097 -77.4642 92° East 140 161 11,000 -60 Level New York Center
01:41PM 41.5106 -77.4117 89° East 140 161 10,900 -60 Descending New York Center
01:42PM 41.5092 -77.3617 92° East 140 161 10,900  Level New York Center
01:43PM 41.5078 -77.3114 92° East 140 161 10,900 -60 Level New York Center
01:44PM 41.5067 -77.2589 92° East 140 161 10,800  Descending New York Center
01:45PM 41.5072 -77.2089 89° East 140 161 10,900 60 Climbing New York Center
01:46PM 41.5058 -77.1561 92° East 140 161 11,000  Climbing New York Center
01:47PM 41.5064 -77.1064 89° East 140 161 11,000  Level New York Center
01:48PM 41.5053 -77.0508 92° East 140 161 11,100  Climbing New York Center
01:49PM 41.5039 -77.0008 92° East 140 161 11,000 -60 Descending New York Center
01:50PM 41.5044 -76.9483 89° East 140 161 11,000  Level New York Center
01:51PM 41.5031 -76.8956 92° East 140 161 11,000  Level New York Center
01:52PM 41.5036 -76.8428 89° East 140 161 11,100  Climbing New York Center
01:53PM 41.5022 -76.7900 92° East 140 161 11,000 -60 Descending New York Center
01:54PM 41.5006 -76.7372 92° East 140 161 11,000  Level New York Center
01:55PM 41.4992 -76.6819 92° East 140 161 11,000 -60 Level New York Center
01:56PM 41.4981 -76.6236 91° East 140 161 10,900  Descending New York Center
01:57PM 41.4986 -76.5681 89° East 140 161 11,000  Climbing New York Center
01:58PM 41.4969 -76.5153 92° East 140 161 11,000  Level New York Center
01:59PM 41.4972 -76.4683 90° East 140 161 11,000 -60 Level New York Center
02:00PM 41.4958 -76.4100 92° East 145 167 10,900 -60 Descending New York Center
02:01PM 41.4942 -76.3572 92° East 139 160 10,900  Level New York Center
02:02PM 41.4925 -76.3044 92° East 139 160 10,900  Level New York Center
02:03PM 41.4925 -76.2575 90° East 139 160 11,000  Climbing New York Center
02:04PM 41.4928 -76.2047 90° East 139 160 10,900 -60 Descending New York Center
02:05PM 41.4914 -76.1467 92° East 145 167 10,900  Level New York Center
02:06PM 41.4894 -76.0939 93° East 145 167 10,900  Level New York Center
02:07PM 41.4897 -76.0411 90° East 145 167 10,900  Level New York Center
02:08PM 41.4878 -75.9911 93° East 145 167 11,000  Climbing New York Center
02:09PM 41.4864 -75.9328 92° East 145 167 11,000  Level New York Center
02:10PM 41.4844 -75.8800 93° East 145 167 11,000  Level New York Center
02:11PM 41.4844 -75.8275 90° East 145 167 11,000  Level New York Center
02:12PM 41.4828 -75.7719 92° East 145 167 11,000  Level New York Center
02:13PM 41.4828 -75.7194 90° East 145 167 11,000  Level New York Center
02:14PM 41.4808 -75.6694 93° East 140 161 11,000  Level New York Center
02:15PM 41.4808 -75.6194 90° East 140 161 11,000  Level New York Center
02:16PM 41.4786 -75.5669 93° East 140 161 11,100  Climbing New York Center
02:17PM 41.4769 -75.5114 92° East 140 161 11,000 -60 Descending New York Center
02:18PM 41.4811 -75.4561 84° East 140 161 11,000 60 Level New York Center
02:21PM 41.5003 -75.3394 78° East 149 171 11,200 60 Climbing Boston Center
02:22PM 41.5100 -75.2872 76° East 143 165 11,200  Level Boston Center
02:23PM 41.5175 -75.2378 79° East 143 165 11,200 -60 Level Boston Center
02:24PM 41.5272 -75.1825 77° East 143 165 11,100 -120 Descending Boston Center
02:25PM 41.5347 -75.1275 80° East 143 165 11,000 -60 Descending Boston Center
02:26PM 41.5442 -75.0781 76° East 143 165 11,000  Level Boston Center
02:27PM 41.5539 -75.0172 78° East 143 165 11,100  Climbing Boston Center
02:28PM 41.5614 -74.9703 78° East 143 165 11,100  Level Boston Center
02:29PM 41.5711 -74.9097 78° East 143 165 11,200  Climbing Boston Center
02:30PM 41.5783 -74.8628 78° East 143 165 11,200  Level Boston Center
02:31PM 41.5858 -74.8019 81° East 143 165 11,200 -60 Level Boston Center
02:32PM 41.5950 -74.7581 74° East 143 165 11,100 -180 Descending Boston Center
02:33PM 41.6025 -74.6972 81° East 143 165 10,900 -360 Descending Boston Center
02:34PM 41.6203 -74.6478 64° Northeast 149 171 10,400 -660 Descending Boston Center
02:35PM 41.6400 -74.5875 66° East 149 171 9,600 -780 Descending Boston Center
02:36PM 41.6619 -74.5408 58° Northeast 154 177 8,900 -720 Descending Boston Center
02:37PM 41.6650 -74.4797 86° East 148 170 8,200 -540 Descending Boston Center
02:38PM 41.6658 -74.4297 89° East 143 165 7,900 -360 Descending Boston Center
02:39PM 41.6667 -74.3825 89° East 133 153 7,500 -360 Descending Boston Center
02:40PM 41.6656 -74.3353 92° East 128 147 7,200 -180 Descending Boston Center
02:41PM 41.6683 -74.2881 85° East 122 140 7,200 -120 Level Boston Center
02:42PM 41.6628 -74.2436 99° East 122 140 7,000 -60 Descending Boston Center
02:43PM 41.6594 -74.2017 96° East 116 133 7,100  Climbing Boston Center
02:44PM 41.6517 -74.1517 102° East 126 145 7,100  Level Boston Center
02:45PM 41.6461 -74.1097 100° East 126 145 7,100 -120 Level Boston Center
02:47PM 41.6167 -74.0333 117° Southeast 120 138 6,800 -240 Descending New York TRACON
02:48PM 41.5833 -74.0000 143° Southeast 123 142 6,500 -420 Descending New York TRACON
02:49PM 41.5667 -73.9833 143° Southeast 120 138 6,000 -300 Descending New York TRACON
02:50PM 41.5500 -73.9500 124° Southeast 111 128 5,900  Descending New York TRACON
02:51PM 41.5333 -73.9167 124° Southeast 107 123 6,100 -120 Climbing New York TRACON
02:52PM 41.5000 -73.8833 143° Southeast 121 139 5,700 -480 Descending New York TRACON
02:52PM 41.4833 -73.8500 124° Southeast 131 151 5,200 -540 Descending New York TRACON
02:54PM 41.4833 -73.8000 90° East 122 140 4,700 -600 Descending New York TRACON
02:55PM 41.4667 -73.7500 114° Southeast 122 140 4,000 -780 Descending New York TRACON
02:55PM 41.4500 -73.7167 124° Southeast 119 137 3,300 -540 Descending New York TRACON
02:57PM 41.4333 -73.6833 124° Southeast 102 117 3,000 -180 Descending New York TRACON
02:57PM 41.4333 -73.6500 90° East 101 116 3,000  Level New York TRACON
02:58PM 41.4167 -73.6167 124° Southeast 101 116 3,100 -240 Climbing New York TRACON
02:59PM 41.4000 -73.5833 124° Southeast 108 124 2,600 -480 Descending New York TRACON
03:00PM 41.4167 -73.5500 56° Northeast 108 124 2,200 -360 Descending New York TRACON
03:01PM 41.4333 -73.5167 56° Northeast 114 131 1,900 -300 Descending New York TRACON
03:02PM 41.4167 -73.5000 143° Southeast 60 69 1,700 -240 Descending New York TRACON
03:04PM 41.4000 -73.5000 180° South 60 69 1,400 -300 Descending New York TRACON
03:06PM 41.3715 -73.4822 159° South  Level Estimated
03:13PM 41.3715 -73.4822 37° Northeast  Level Estimated
03:14PM 41.3715 -73.4822 37° Northeast  Level Estimated
03:15PM 41.3715 -73.4822 37° Northeast  Level Estimated